Arak, Iran
Current Conditions -  °F | °C
As of 11:00 PM on Sunday 23 Nov 2014 (Local Time) from OICC Reporting Station
Scattered Clouds Scattered Clouds  
Wind Chill: 42°   Ceiling: Unl
Heat Index: 45°   Visibility: 6mi
Dew Point: 37°   Wind: 5mph
Humidity: 76%   Direction: 270°W
Pressure: 30"   Gusts: NA
Location:  34.1°N, 49.4°E
Report Text: OICC 232000Z 27004KT 9999 FEW040 SCT090 07/03 Q1016 A3003
Loading
Personal Weather Stations






























Interactive Weather Map New forecast layout! Learn more

10-Day Weather Forecast

Advertisements
Track Severe Weather on mobile